Time;durP1;ratioP1;P1;durP2;ratioP2;P2;SDS_P1;SDS_P2;PMS_P1;PMS_P2;Temp;Humidity;BMP_temperature;BMP_pressure;BME280_temperature;BME280_humidity;BME280_pressure;Samples;Min_cycle;Max_cycle;Signal;HPM_P1;HPM_P2
2021/08/06 00:01:53;;;;;;;;;;;;;;;;;;2133595;59;1477;-67
2021/08/06 00:04:19;;;;;;;;;;;;;;;;;;2135135;67;1532;-67
2021/08/06 00:06:44;;;;;;;;;;;;;;;;;;2129794;59;1554;-66
2021/08/06 00:09:09;;;;;;;;;;;;;;;;;;2135094;67;1633;-67
2021/08/06 00:11:34;;;;;;;;;;;;;;;;;;2133620;67;1493;-66
2021/08/06 00:14:00;;;;;;;;;;;;;;;;;;2134901;67;1978;-67
2021/08/06 00:16:25;;;;;;;;;;;;;;;;;;2133510;67;1454;-67
2021/08/06 00:18:50;;;;;;;;;;;;;;;;;;2134875;67;1363;-66
2021/08/06 00:21:17;;;;;;;;;;;;;;;;;;2133377;59;1544;-67
2021/08/06 00:23:42;;;;;;;;;;;;;;;;;;2133704;67;1694;-66
2021/08/06 00:26:07;;;;;;;;;;;;;;;;;;2133414;67;1330;-66
2021/08/06 00:28:32;;;;;;;;;;;;;;;;;;2134615;67;1410;-67
2021/08/06 00:30:57;;;;;;;;;;;;;;;;;;2133702;67;1173;-67
2021/08/06 00:33:23;;;;;;;;;;;;;;;;;;2134325;67;1917;-66
2021/08/06 00:35:48;;;;;;;;;;;;;;;;;;2133259;67;1670;-67
2021/08/06 00:38:13;;;;;;;;;;;;;;;;;;2133852;67;1527;-66
2021/08/06 00:40:38;;;;;;;;;;;;;;;;;;2133877;67;1624;-67
2021/08/06 00:43:04;;;;;;;;;;;;;;;;;;2133722;67;1400;-67
2021/08/06 00:45:29;;;;;;;;;;;;;;;;;;2134008;67;1537;-70
2021/08/06 00:47:54;;;;;;;;;;;;;;;;;;2133708;67;1557;-69
2021/08/06 00:50:20;;;;;;;;;;;;;;;;;;2134055;67;1607;-67
2021/08/06 00:52:45;;;;;;;;;;;;;;;;;;2133500;67;1977;-68
2021/08/06 00:55:11;;;;;;;;;;;;;;;;;;2133994;67;1311;-69
2021/08/06 00:57:36;;;;;;;;;;;;;;;;;;2133475;67;1489;-68
2021/08/06 01:00:02;;;;;;;;;;;;;;;;;;2133842;67;1441;-69
2021/08/06 01:02:42;;;;;;;;;;;;;;;;;;2133757;59;2111;-69
2021/08/06 01:05:12;;;;;;;;;;;;;;;;;;2132759;67;1558;-67
2021/08/06 01:07:49;;;;;;;;;;;;;;;;;;2133419;67;1330;-71
2021/08/06 01:10:16;;;;;;;;;;;;;;;;;;2133593;67;1460;-68
2021/08/06 01:12:50;;;;;;;;;;;;;;;;;;2133489;67;1981;-68
2021/08/06 01:15:16;;;;;;;;;;;;;;;;;;2129946;59;1584;-69
2021/08/06 01:17:44;;;;;;;;;;;;;;;;;;2133681;67;1475;-68
2021/08/06 01:20:16;;;;;;;;;;;;;;;;;;2134781;67;1347;-68
2021/08/06 01:22:50;;;;;;;;;;;;;;;;;;2133426;59;1559;-69
2021/08/06 01:25:16;;;;;;;;;;;;;;;;;;2132482;67;1542;-68
2021/08/06 01:27:42;;;;;;;;;;;;;;;;;;2133589;67;1473;-66
2021/08/06 01:30:08;;;;;;;;;;;;;;;;;;2134827;67;1332;-68
2021/08/06 01:32:34;;;;;;;;;;;;;;;;;;2133540;67;1920;-68
2021/08/06 01:34:59;;;;;;;;;;;;;;;;;;2134581;67;1520;-69
2021/08/06 01:37:24;;;;;;;;;;;;;;;;;;2133325;67;1350;-68
2021/08/06 01:39:50;;;;;;;;;;;;;;;;;;2134442;67;1313;-68
2021/08/06 01:42:17;;;;;;;;;;;;;;;;;;2133282;59;1644;-68
2021/08/06 01:44:46;;;;;;;;;;;;;;;;;;2134252;67;1619;-69
2021/08/06 01:47:16;;;;;;;;;;;;;;;;;;2133421;67;1500;-68
2021/08/06 01:49:44;;;;;;;;;;;;;;;;;;2133514;67;1603;-68
2021/08/06 01:52:12;;;;;;;;;;;;;;;;;;2133251;59;1772;-69
2021/08/06 01:54:37;;;;;;;;;;;;;;;;;;2134053;67;1334;-68
2021/08/06 01:57:04;;;;;;;;;;;;;;;;;;2133257;67;1592;-68
2021/08/06 01:59:29;;;;;;;;;;;;;;;;;;2133884;67;1576;-69
2021/08/06 02:01:55;;;;;;;;;;;;;;;;;;2133464;59;1642;-68
2021/08/06 02:04:22;;;;;;;;;;;;;;;;;;2133539;59;1482;-68
2021/08/06 02:06:47;;;;;;;;;;;;;;;;;;2133944;67;1264;-69
2021/08/06 02:09:16;;;;;;;;;;;;;;;;;;2134065;59;1519;-68
2021/08/06 02:11:42;;;;;;;;;;;;;;;;;;2133432;59;2444;-68
2021/08/06 02:14:07;;;;;;;;;;;;;;;;;;2133831;67;1989;-68
2021/08/06 02:16:32;;;;;;;;;;;;;;;;;;2134115;67;1369;-68
2021/08/06 02:18:58;;;;;;;;;;;;;;;;;;2133718;67;1507;-68
2021/08/06 02:21:26;;;;;;;;;;;;;;;;;;2134091;59;1666;-68
2021/08/06 02:23:53;;;;;;;;;;;;;;;;;;2133436;67;1698;-68
2021/08/06 02:26:20;;;;;;;;;;;;;;;;;;2134132;67;1595;-68
2021/08/06 02:28:45;;;;;;;;;;;;;;;;;;2133914;67;1498;-68
2021/08/06 02:31:11;;;;;;;;;;;;;;;;;;2135558;67;1399;-69
2021/08/06 02:33:37;;;;;;;;;;;;;;;;;;2134131;67;1980;-68
2021/08/06 02:36:03;;;;;;;;;;;;;;;;;;2134886;67;1554;-68
2021/08/06 02:38:28;;;;;;;;;;;;;;;;;;2134142;67;1620;-68
2021/08/06 02:40:53;;;;;;;;;;;;;;;;;;2135009;60;1433;-69
2021/08/06 02:43:19;;;;;;;;;;;;;;;;;;2134218;67;1326;-68
2021/08/06 02:45:45;;;;;;;;;;;;;;;;;;2134984;67;1560;-68
2021/08/06 02:48:10;;;;;;;;;;;;;;;;;;2132413;67;1510;-69
2021/08/06 02:50:36;;;;;;;;;;;;;;;;;;2134670;67;1336;-68
2021/08/06 02:53:01;;;;;;;;;;;;;;;;;;2133891;67;1988;-68
2021/08/06 02:55:26;;;;;;;;;;;;;;;;;;2134595;67;1271;-69
2021/08/06 02:57:51;;;;;;;;;;;;;;;;;;2134258;67;1674;-69
2021/08/06 03:00:16;;;;;;;;;;;;;;;;;;2134232;67;1284;-68
2021/08/06 03:02:42;;;;;;;;;;;;;;;;;;2134480;59;1461;-68
2021/08/06 03:05:07;;;;;;;;;;;;;;;;;;2133745;67;1461;-69
2021/08/06 03:07:32;;;;;;;;;;;;;;;;;;2134726;67;1539;-69
2021/08/06 03:09:57;;;;;;;;;;;;;;;;;;2133810;67;1559;-68
2021/08/06 03:12:23;;;;;;;;;;;;;;;;;;2134560;67;1997;-69
2021/08/06 03:14:48;;;;;;;;;;;;;;;;;;2133936;67;1596;-68
2021/08/06 03:17:13;;;;;;;;;;;;;;;;;;2134022;67;1510;-68
2021/08/06 03:19:38;;;;;;;;;;;;;;;;;;2134072;67;1460;-68
2021/08/06 03:22:04;;;;;;;;;;;;;;;;;;2133995;59;1698;-68
2021/08/06 03:24:29;;;;;;;;;;;;;;;;;;2133791;67;1699;-68
2021/08/06 03:26:54;;;;;;;;;;;;;;;;;;2134052;67;1444;-68
2021/08/06 03:29:19;;;;;;;;;;;;;;;;;;2134042;67;1522;-69
2021/08/06 03:31:44;;;;;;;;;;;;;;;;;;2133947;67;1536;-68
2021/08/06 03:34:10;;;;;;;;;;;;;;;;;;2133680;67;1937;-68
2021/08/06 03:36:35;;;;;;;;;;;;;;;;;;2133776;67;1543;-68
2021/08/06 03:39:00;;;;;;;;;;;;;;;;;;2133485;67;1526;-68
2021/08/06 03:41:25;;;;;;;;;;;;;;;;;;2134616;67;1630;-69
2021/08/06 03:43:50;;;;;;;;;;;;;;;;;;2134397;67;1539;-68
2021/08/06 03:46:16;;;;;;;;;;;;;;;;;;2134008;67;1582;-68
2021/08/06 03:48:41;;;;;;;;;;;;;;;;;;2134545;67;1490;-68
2021/08/06 03:51:06;;;;;;;;;;;;;;;;;;2133242;67;1508;-68
2021/08/06 03:53:32;;;;;;;;;;;;;;;;;;2134866;67;1985;-68
2021/08/06 03:55:57;;;;;;;;;;;;;;;;;;2133525;67;1324;-69
2021/08/06 03:58:22;;;;;;;;;;;;;;;;;;2134753;59;1490;-69
2021/08/06 04:00:47;;;;;;;;;;;;;;;;;;2133668;59;1564;-69
2021/08/06 04:03:13;;;;;;;;;;;;;;;;;;2134615;67;1621;-69
2021/08/06 04:05:38;;;;;;;;;;;;;;;;;;2133559;67;1510;-69
2021/08/06 04:08:04;;;;;;;;;;;;;;;;;;2134099;67;1415;-69
2021/08/06 04:10:30;;;;;;;;;;;;;;;;;;2133624;67;1502;-68
2021/08/06 04:12:55;;;;;;;;;;;;;;;;;;2134175;67;1970;-69
2021/08/06 04:15:20;;;;;;;;;;;;;;;;;;2133395;67;1453;-68
2021/08/06 04:17:45;;;;;;;;;;;;;;;;;;2134331;67;1460;-69
2021/08/06 04:20:11;;;;;;;;;;;;;;;;;;2133601;67;1533;-68
2021/08/06 04:22:36;;;;;;;;;;;;;;;;;;2134446;59;2461;-70
2021/08/06 04:25:01;;;;;;;;;;;;;;;;;;2133572;59;1311;-69
2021/08/06 04:27:26;;;;;;;;;;;;;;;;;;2134070;59;1397;-68
2021/08/06 04:29:52;;;;;;;;;;;;;;;;;;2133711;59;1553;-68
2021/08/06 04:32:17;;;;;;;;;;;;;;;;;;2133759;67;1623;-69
2021/08/06 04:34:42;;;;;;;;;;;;;;;;;;2133532;67;1968;-70
2021/08/06 04:37:07;;;;;;;;;;;;;;;;;;2133733;67;1463;-69
2021/08/06 04:39:33;;;;;;;;;;;;;;;;;;2129071;59;2170;-69
2021/08/06 04:41:58;;;;;;;;;;;;;;;;;;2132401;67;1844;-69
2021/08/06 04:44:23;;;;;;;;;;;;;;;;;;2132361;59;2167;-69
2021/08/06 04:46:48;;;;;;;;;;;;;;;;;;2130251;59;2362;-69
2021/08/06 04:49:14;;;;;;;;;;;;;;;;;;2130094;59;2080;-70
2021/08/06 04:51:39;;;;;;;;;;;;;;;;;;2132559;67;1995;-69
2021/08/06 04:54:04;;;;;;;;;;;;;;;;;;2132250;67;1980;-70
2021/08/06 04:56:29;;;;;;;;;;;;;;;;;;2132447;59;2996;-69
2021/08/06 04:58:55;;;;;;;;;;;;;;;;;;2131984;67;3402;-69
2021/08/06 05:01:20;;;;;;;;;;;;;;;;;;2131919;59;2386;-67
2021/08/06 05:03:45;;;;;;;;;;;;;;;;;;2132996;67;1841;-66
2021/08/06 05:06:11;;;;;;;;;;;;;;;;;;2132913;67;1887;-67
2021/08/06 05:08:38;;;;;;;;;;;;;;;;;;2133992;67;1456;-66
2021/08/06 05:11:04;;;;;;;;;;;;;;;;;;2132904;67;1416;-67
2021/08/06 05:13:29;;;;;;;;;;;;;;;;;;2132736;67;1937;-68
2021/08/06 05:15:54;;;;;;;;;;;;;;;;;;2132870;67;1625;-66
2021/08/06 05:18:19;;;;;;;;;;;;;;;;;;2133829;67;1470;-66
2021/08/06 05:20:45;;;;;;;;;;;;;;;;;;2132610;59;1572;-65
2021/08/06 05:23:10;;;;;;;;;;;;;;;;;;2132816;67;2052;-67
2021/08/06 05:25:35;;;;;;;;;;;;;;;;;;2132334;67;1519;-66
2021/08/06 05:28:00;;;;;;;;;;;;;;;;;;2132940;67;1505;-66
2021/08/06 05:30:26;;;;;;;;;;;;;;;;;;2133187;67;1323;-68
2021/08/06 05:32:51;;;;;;;;;;;;;;;;;;2132607;59;2197;-68
2021/08/06 05:35:16;;;;;;;;;;;;;;;;;;2133552;59;2898;-69
2021/08/06 05:37:42;;;;;;;;;;;;;;;;;;2133538;67;1546;-67
2021/08/06 05:40:07;;;;;;;;;;;;;;;;;;2134132;67;1338;-69
2021/08/06 05:42:32;;;;;;;;;;;;;;;;;;2134362;67;1977;-67
2021/08/06 05:44:58;;;;;;;;;;;;;;;;;;2134740;59;1454;-68
2021/08/06 05:47:23;;;;;;;;;;;;;;;;;;2134710;59;1815;-70
2021/08/06 05:49:48;;;;;;;;;;;;;;;;;;2134644;67;1600;-69
2021/08/06 05:52:13;;;;;;;;;;;;;;;;;;2133869;59;1728;-67
2021/08/06 05:54:38;;;;;;;;;;;;;;;;;;2134251;59;2031;-68
2021/08/06 05:57:04;;;;;;;;;;;;;;;;;;2133014;59;2680;-70
2021/08/06 05:59:29;;;;;;;;;;;;;;;;;;2133038;59;3357;-68
2021/08/06 06:01:54;;;;;;;;;;;;;;;;;;2133759;59;1492;-69
2021/08/06 06:04:19;;;;;;;;;;;;;;;;;;2133910;67;1512;-68
2021/08/06 06:06:44;;;;;;;;;;;;;;;;;;2130585;59;2007;-68
2021/08/06 06:09:10;;;;;;;;;;;;;;;;;;2134597;67;1774;-70
2021/08/06 06:11:35;;;;;;;;;;;;;;;;;;2134377;67;1620;-70
2021/08/06 06:14:00;;;;;;;;;;;;;;;;;;2134553;67;1979;-70
2021/08/06 06:16:26;;;;;;;;;;;;;;;;;;2134798;67;1394;-70
2021/08/06 06:18:51;;;;;;;;;;;;;;;;;;2131238;60;1493;-69
2021/08/06 06:21:17;;;;;;;;;;;;;;;;;;2134932;59;1596;-70
2021/08/06 06:23:42;;;;;;;;;;;;;;;;;;2128648;67;1765;-70
2021/08/06 06:26:07;;;;;;;;;;;;;;;;;;2132589;67;1607;-70
2021/08/06 06:28:33;;;;;;;;;;;;;;;;;;2133470;67;1640;-70
2021/08/06 06:30:58;;;;;;;;;;;;;;;;;;2131627;59;1724;-70
2021/08/06 06:33:25;;;;;;;;;;;;;;;;;;2133908;60;2240;-70
2021/08/06 06:35:50;;;;;;;;;;;;;;;;;;2132473;59;3287;-70
2021/08/06 06:38:15;;;;;;;;;;;;;;;;;;2128782;67;2408;-69
2021/08/06 06:40:41;;;;;;;;;;;;;;;;;;2133565;67;2379;-69
2021/08/06 06:43:08;;;;;;;;;;;;;;;;;;2130465;59;2358;-71
2021/08/06 06:45:34;;;;;;;;;;;;;;;;;;2135114;59;1894;-71
2021/08/06 06:47:59;;;;;;;;;;;;;;;;;;2133545;59;1505;-69
2021/08/06 06:50:26;;;;;;;;;;;;;;;;;;2135533;67;1632;-71
2021/08/06 06:52:51;;;;;;;;;;;;;;;;;;2128521;67;2410;-68
2021/08/06 06:55:17;;;;;;;;;;;;;;;;;;2133694;67;2851;-69
2021/08/06 06:57:43;;;;;;;;;;;;;;;;;;2130129;59;2632;-69
2021/08/06 07:00:09;;;;;;;;;;;;;;;;;;2128804;67;3334;-68
2021/08/06 07:02:34;;;;;;;;;;;;;;;;;;2133787;59;1898;-68
2021/08/06 07:05:05;;;;;;;;;;;;;;;;;;2133771;59;1850;-71
2021/08/06 07:07:30;;;;;;;;;;;;;;;;;;2129856;59;2288;-70
2021/08/06 07:09:55;;;;;;;;;;;;;;;;;;2132601;59;2242;-70
2021/08/06 07:12:24;;;;;;;;;;;;;;;;;;2129305;59;2477;-72
2021/08/06 07:14:49;;;;;;;;;;;;;;;;;;2130148;67;2188;-69
2021/08/06 07:17:14;;;;;;;;;;;;;;;;;;2134860;67;1623;-69
2021/08/06 07:19:40;;;;;;;;;;;;;;;;;;2134472;67;1573;-72
2021/08/06 07:22:05;;;;;;;;;;;;;;;;;;2129752;59;1489;-70
2021/08/06 07:24:31;;;;;;;;;;;;;;;;;;2131684;67;1786;-70
2021/08/06 07:26:56;;;;;;;;;;;;;;;;;;2133793;67;1538;-71
2021/08/06 07:29:22;;;;;;;;;;;;;;;;;;2127660;59;2222;-70
2021/08/06 07:31:47;;;;;;;;;;;;;;;;;;2133990;67;1683;-68
2021/08/06 07:34:12;;;;;;;;;;;;;;;;;;2134459;67;1925;-71
2021/08/06 07:36:37;;;;;;;;;;;;;;;;;;2134125;67;1639;-68
2021/08/06 07:39:03;;;;;;;;;;;;;;;;;;2133395;59;2144;-68
2021/08/06 07:41:28;;;;;;;;;;;;;;;;;;2133847;67;1723;-71
2021/08/06 07:43:53;;;;;;;;;;;;;;;;;;2133845;59;1636;-69
2021/08/06 07:46:19;;;;;;;;;;;;;;;;;;2133306;67;2044;-68
2021/08/06 07:48:44;;;;;;;;;;;;;;;;;;2133106;59;1912;-72
2021/08/06 07:51:09;;;;;;;;;;;;;;;;;;2132869;59;1708;-68
2021/08/06 07:53:34;;;;;;;;;;;;;;;;;;2133879;67;1980;-69
2021/08/06 07:56:00;;;;;;;;;;;;;;;;;;2129395;67;1537;-70
2021/08/06 07:58:25;;;;;;;;;;;;;;;;;;2132202;67;1616;-68
2021/08/06 08:00:50;;;;;;;;;;;;;;;;;;2129735;59;3121;-68
2021/08/06 08:03:16;;;;;;;;;;;;;;;;;;2131126;59;1762;-71
2021/08/06 08:05:41;;;;;;;;;;;;;;;;;;2129847;62;1597;-68
2021/08/06 08:08:06;;;;;;;;;;;;;;;;;;2126325;59;2281;-68
2021/08/06 08:10:32;;;;;;;;;;;;;;;;;;2130683;67;1600;-67
2021/08/06 08:12:57;;;;;;;;;;;;;;;;;;2131781;67;1945;-70
2021/08/06 08:15:23;;;;;;;;;;;;;;;;;;2131834;67;2192;-68
2021/08/06 08:17:48;;;;;;;;;;;;;;;;;;2131744;67;2332;-70
2021/08/06 08:20:15;;;;;;;;;;;;;;;;;;2131523;59;1301;-66
2021/08/06 08:22:40;;;;;;;;;;;;;;;;;;2127744;59;3238;-68
2021/08/06 08:25:06;;;;;;;;;;;;;;;;;;2131934;67;2230;-67
2021/08/06 08:27:32;;;;;;;;;;;;;;;;;;2132633;59;2075;-67
2021/08/06 08:29:58;;;;;;;;;;;;;;;;;;2132321;59;1502;-67
2021/08/06 08:32:23;;;;;;;;;;;;;;;;;;2133201;67;1306;-71
2021/08/06 08:34:48;;;;;;;;;;;;;;;;;;2132254;67;1937;-69
2021/08/06 08:37:15;;;;;;;;;;;;;;;;;;2132477;67;1673;-69
2021/08/06 08:39:40;;;;;;;;;;;;;;;;;;2130022;59;2264;-69
2021/08/06 08:42:05;;;;;;;;;;;;;;;;;;2131340;59;2296;-69
2021/08/06 08:44:32;;;;;;;;;;;;;;;;;;2133201;67;1589;-68
2021/08/06 08:46:58;;;;;;;;;;;;;;;;;;2134666;67;1619;-68
2021/08/06 08:49:27;;;;;;;;;;;;;;;;;;2133858;59;1899;-68
2021/08/06 08:51:52;;;;;;;;;;;;;;;;;;2132133;59;1837;-69
2021/08/06 08:54:18;;;;;;;;;;;;;;;;;;2133097;67;1974;-69
2021/08/06 08:56:43;;;;;;;;;;;;;;;;;;2128115;59;2159;-67
2021/08/06 08:59:08;;;;;;;;;;;;;;;;;;2133420;67;1409;-68
2021/08/06 09:01:34;;;;;;;;;;;;;;;;;;2132818;59;3157;-69
2021/08/06 09:03:59;;;;;;;;;;;;;;;;;;2132579;59;2675;-67
2021/08/06 09:06:40;;;;;;;;;;;;;;;;;;2130938;59;1821;-68
2021/08/06 09:09:16;;;;;;;;;;;;;;;;;;2131566;59;1845;-68
2021/08/06 09:11:42;;;;;;;;;;;;;;;;;;2133291;59;1766;-67
2021/08/06 09:14:26;;;;;;;;;;;;;;;;;;2132807;67;1936;-68
2021/08/06 09:16:55;;;;;;;;;;;;;;;;;;2131335;59;1874;-68
2021/08/06 09:19:21;;;;;;;;;;;;;;;;;;2134469;67;1448;-68
2021/08/06 09:21:46;;;;;;;;;;;;;;;;;;2132599;59;2468;-68
2021/08/06 09:24:11;;;;;;;;;;;;;;;;;;2133294;59;1797;-69
2021/08/06 09:26:40;;;;;;;;;;;;;;;;;;2134025;67;1674;-68
2021/08/06 09:29:05;;;;;;;;;;;;;;;;;;2132435;59;1927;-68
2021/08/06 09:31:32;;;;;;;;;;;;;;;;;;2134151;67;1607;-67
2021/08/06 09:34:26;;;;;;;;;;;;;;;;;;2131827;59;1925;-66
2021/08/06 09:36:57;;;;;;;;;;;;;;;;;;2130059;59;1724;-69
2021/08/06 09:39:23;;;;;;;;;;;;;;;;;;2126245;59;1978;-67
2021/08/06 09:41:49;;;;;;;;;;;;;;;;;;2133664;67;2160;-67
2021/08/06 09:44:14;;;;;;;;;;;;;;;;;;2133655;67;1369;-69
2021/08/06 09:46:39;;;;;;;;;;;;;;;;;;2132301;59;1924;-68
2021/08/06 09:49:05;;;;;;;;;;;;;;;;;;2134153;59;1640;-66
2021/08/06 09:51:30;;;;;;;;;;;;;;;;;;2134086;67;1552;-68
2021/08/06 09:53:55;;;;;;;;;;;;;;;;;;2133046;59;2012;-70
2021/08/06 09:56:21;;;;;;;;;;;;;;;;;;2133360;67;1536;-68
2021/08/06 09:58:56;;;;;;;;;;;;;;;;;;2134569;67;1554;-69
2021/08/06 10:01:22;;;;;;;;;;;;;;;;;;2130788;59;2561;-69
2021/08/06 10:03:47;;;;;;;;;;;;;;;;;;2133156;67;3740;-69
2021/08/06 10:06:14;;;;;;;;;;;;;;;;;;2134506;59;2003;-70
2021/08/06 10:08:40;;;;;;;;;;;;;;;;;;2134070;59;1692;-69
2021/08/06 10:11:05;;;;;;;;;;;;;;;;;;2131249;59;2197;-68
2021/08/06 10:13:31;;;;;;;;;;;;;;;;;;2133539;67;1974;-69
2021/08/06 10:15:56;;;;;;;;;;;;;;;;;;2134108;67;1413;-69
2021/08/06 10:18:22;;;;;;;;;;;;;;;;;;2134067;67;1392;-67
2021/08/06 10:20:48;;;;;;;;;;;;;;;;;;2132384;59;1880;-70
2021/08/06 10:23:13;;;;;;;;;;;;;;;;;;2139272;54;3710;-68
2021/08/06 10:25:39;;;;;;;;;;;;;;;;;;2135009;59;1996;-67
2021/08/06 10:28:04;;;;;;;;;;;;;;;;;;2136141;59;1487;-67
2021/08/06 10:30:31;;;;;;;;;;;;;;;;;;2137606;59;1549;-66
2021/08/06 10:33:18;;;;;;;;;;;;;;;;;;2136199;59;1968;-67
2021/08/06 10:35:51;;;;;;;;;;;;;;;;;;2140531;67;1838;-66
2021/08/06 10:38:32;;;;;;;;;;;;;;;;;;2138208;59;2032;-67
2021/08/06 10:40:57;;;;;;;;;;;;;;;;;;2140473;67;1740;-67
2021/08/06 10:43:39;;;;;;;;;;;;;;;;;;2138097;59;1938;-68
2021/08/06 10:46:05;;;;;;;;;;;;;;;;;;2139825;59;1281;-65
2021/08/06 10:48:30;;;;;;;;;;;;;;;;;;2140508;59;1860;-64
2021/08/06 10:51:14;;;;;;;;;;;;;;;;;;2138059;59;1888;-65
2021/08/06 10:53:39;;;;;;;;;;;;;;;;;;2140453;67;1981;-68
2021/08/06 10:56:21;;;;;;;;;;;;;;;;;;2139737;59;1473;-65
2021/08/06 10:58:52;;;;;;;;;;;;;;;;;;2138923;59;2362;-65
2021/08/06 11:01:26;;;;;;;;;;;;;;;;;;2135026;59;2509;-66
2021/08/06 11:03:56;;;;;;;;;;;;;;;;;;2134260;59;2949;-65
2021/08/06 11:06:41;;;;;;;;;;;;;;;;;;2140307;67;1751;-65
2021/08/06 11:09:08;;;;;;;;;;;;;;;;;;2138881;59;1890;-67
2021/08/06 11:11:40;;;;;;;;;;;;;;;;;;2139811;59;1991;-67
2021/08/06 11:14:05;;;;;;;;;;;;;;;;;;2138337;59;2161;-67
2021/08/06 11:16:30;;;;;;;;;;;;;;;;;;2137497;59;1986;-67
2021/08/06 11:18:56;;;;;;;;;;;;;;;;;;2140417;59;2302;-68
2021/08/06 11:21:22;;;;;;;;;;;;;;;;;;2141065;67;1691;-68
2021/08/06 11:23:57;;;;;;;;;;;;;;;;;;2137226;59;1925;-67
2021/08/06 11:26:23;;;;;;;;;;;;;;;;;;2140774;67;1625;-67
2021/08/06 11:28:48;;;;;;;;;;;;;;;;;;2133281;59;2296;-66
2021/08/06 11:31:18;;;;;;;;;;;;;;;;;;2133827;59;2497;-67
2021/08/06 11:33:43;;;;;;;;;;;;;;;;;;2138627;58;2294;-66
2021/08/06 11:36:15;;;;;;;;;;;;;;;;;;2137677;59;1919;-67
2021/08/06 11:38:40;;;;;;;;;;;;;;;;;;2140648;67;2362;-66
2021/08/06 11:41:05;;;;;;;;;;;;;;;;;;2138744;59;1941;-67
2021/08/06 11:43:34;;;;;;;;;;;;;;;;;;2139832;67;1625;-67
2021/08/06 11:46:12;;;;;;;;;;;;;;;;;;2140466;67;1735;-67
2021/08/06 11:48:57;;;;;;;;;;;;;;;;;;2137873;59;1728;-67
2021/08/06 11:51:22;;;;;;;;;;;;;;;;;;2140961;67;1683;-67
2021/08/06 11:53:47;;;;;;;;;;;;;;;;;;2139085;59;2072;-67
2021/08/06 11:56:14;;;;;;;;;;;;;;;;;;2139193;59;1598;-67
2021/08/06 11:58:40;;;;;;;;;;;;;;;;;;2141162;67;1393;-67
2021/08/06 12:01:07;;;;;;;;;;;;;;;;;;2139248;59;2048;-67
2021/08/06 12:03:45;;;;;;;;;;;;;;;;;;2140640;66;3167;-67
2021/08/06 12:06:10;;;;;;;;;;;;;;;;;;2139444;67;3628;-67
2021/08/06 12:08:35;;;;;;;;;;;;;;;;;;2137673;59;2236;-68
2021/08/06 12:11:07;;;;;;;;;;;;;;;;;;2140501;59;1750;-67
2021/08/06 12:13:33;;;;;;;;;;;;;;;;;;2138558;59;1932;-70
2021/08/06 12:15:59;;;;;;;;;;;;;;;;;;2140405;67;1459;-66
2021/08/06 12:18:24;;;;;;;;;;;;;;;;;;2140875;67;1935;-67
2021/08/06 12:20:52;;;;;;;;;;;;;;;;;;2137506;59;2308;-67
2021/08/06 12:23:18;;;;;;;;;;;;;;;;;;2139212;59;2584;-66
2021/08/06 12:26:02;;;;;;;;;;;;;;;;;;2140417;59;1773;-66
2021/08/06 12:28:27;;;;;;;;;;;;;;;;;;2140667;67;1749;-67
2021/08/06 12:31:05;;;;;;;;;;;;;;;;;;2140713;59;2794;-68
2021/08/06 12:33:31;;;;;;;;;;;;;;;;;;2139981;59;1938;-67
2021/08/06 12:36:07;;;;;;;;;;;;;;;;;;2140425;59;2347;-66
2021/08/06 12:38:32;;;;;;;;;;;;;;;;;;2140720;59;2207;-66
2021/08/06 12:41:00;;;;;;;;;;;;;;;;;;2139846;59;2093;-67
2021/08/06 12:43:25;;;;;;;;;;;;;;;;;;2140010;66;1699;-67
2021/08/06 12:46:13;;;;;;;;;;;;;;;;;;2140255;67;1502;-67
2021/08/06 12:48:57;;;;;;;;;;;;;;;;;;2140583;59;1547;-67
2021/08/06 12:51:22;;;;;;;;;;;;;;;;;;2136683;67;1576;-67
2021/08/06 12:53:47;;;;;;;;;;;;;;;;;;2139572;59;1975;-67
2021/08/06 12:56:12;;;;;;;;;;;;;;;;;;2139965;67;1882;-66
2021/08/06 12:58:38;;;;;;;;;;;;;;;;;;2140663;67;1515;-67
2021/08/06 13:01:03;;;;;;;;;;;;;;;;;;2140375;59;1747;-67
2021/08/06 13:03:29;;;;;;;;;;;;;;;;;;2140699;67;1537;-66
2021/08/06 13:05:56;;;;;;;;;;;;;;;;;;2136301;59;3331;-66
2021/08/06 13:08:31;;;;;;;;;;;;;;;;;;2138949;67;1765;-67
2021/08/06 13:11:02;;;;;;;;;;;;;;;;;;2136946;59;1901;-66
2021/08/06 13:13:29;;;;;;;;;;;;;;;;;;2139642;67;1980;-67
2021/08/06 13:15:54;;;;;;;;;;;;;;;;;;2140366;67;1493;-67
2021/08/06 13:18:19;;;;;;;;;;;;;;;;;;2138285;59;1859;-66
2021/08/06 13:20:44;;;;;;;;;;;;;;;;;;2139791;59;1624;-66
2021/08/06 13:23:11;;;;;;;;;;;;;;;;;;2140191;59;1737;-67
2021/08/06 13:25:38;;;;;;;;;;;;;;;;;;2135664;59;1946;-66
2021/08/06 13:28:04;;;;;;;;;;;;;;;;;;2139076;67;1617;-67
2021/08/06 13:30:29;;;;;;;;;;;;;;;;;;2140132;67;1564;-67
2021/08/06 13:32:54;;;;;;;;;;;;;;;;;;2136963;59;2238;-67
2021/08/06 13:35:19;;;;;;;;;;;;;;;;;;2140299;67;1502;-66
2021/08/06 13:37:45;;;;;;;;;;;;;;;;;;2138640;59;2341;-66
2021/08/06 13:40:10;;;;;;;;;;;;;;;;;;2138830;59;1767;-66
2021/08/06 13:42:36;;;;;;;;;;;;;;;;;;2139907;67;1937;-66
2021/08/06 13:45:01;;;;;;;;;;;;;;;;;;2137533;59;1886;-67
2021/08/06 13:47:26;;;;;;;;;;;;;;;;;;2140119;59;1888;-67
2021/08/06 13:49:52;;;;;;;;;;;;;;;;;;2139776;59;2017;-66
2021/08/06 13:52:17;;;;;;;;;;;;;;;;;;2137652;59;2107;-67
2021/08/06 13:54:43;;;;;;;;;;;;;;;;;;2139305;67;1980;-66
2021/08/06 13:57:08;;;;;;;;;;;;;;;;;;2138717;67;1760;-66
2021/08/06 13:59:33;;;;;;;;;;;;;;;;;;2138027;67;1636;-67
2021/08/06 14:01:59;;;;;;;;;;;;;;;;;;2140511;59;2315;-66
2021/08/06 14:04:24;;;;;;;;;;;;;;;;;;2140049;59;1733;-67
2021/08/06 14:06:49;;;;;;;;;;;;;;;;;;2139279;59;3290;-65
2021/08/06 14:09:14;;;;;;;;;;;;;;;;;;2140298;67;1876;-67
2021/08/06 14:11:40;;;;;;;;;;;;;;;;;;2140300;59;1987;-67
2021/08/06 14:14:05;;;;;;;;;;;;;;;;;;2140325;67;1939;-66
2021/08/06 14:16:32;;;;;;;;;;;;;;;;;;2140712;67;1719;-67
2021/08/06 14:18:57;;;;;;;;;;;;;;;;;;2140531;67;1629;-67
2021/08/06 14:21:22;;;;;;;;;;;;;;;;;;2140850;59;1749;-67
2021/08/06 14:23:48;;;;;;;;;;;;;;;;;;2139981;67;1690;-66
2021/08/06 14:26:13;;;;;;;;;;;;;;;;;;2140366;67;1794;-67
2021/08/06 14:28:38;;;;;;;;;;;;;;;;;;2141100;67;2387;-67
2021/08/06 14:31:08;;;;;;;;;;;;;;;;;;2138957;59;1714;-67
2021/08/06 14:33:33;;;;;;;;;;;;;;;;;;2141132;67;1924;-67
2021/08/06 14:35:58;;;;;;;;;;;;;;;;;;2140713;67;1536;-66
2021/08/06 14:38:23;;;;;;;;;;;;;;;;;;2140349;67;1717;-67
2021/08/06 14:40:49;;;;;;;;;;;;;;;;;;2141083;67;1934;-67
2021/08/06 14:43:16;;;;;;;;;;;;;;;;;;2140869;67;1294;-66
2021/08/06 14:45:41;;;;;;;;;;;;;;;;;;2140696;67;1595;-66
2021/08/06 14:48:06;;;;;;;;;;;;;;;;;;2140444;59;1550;-66
2021/08/06 14:50:31;;;;;;;;;;;;;;;;;;2141113;67;1486;-65
2021/08/06 14:52:56;;;;;;;;;;;;;;;;;;2139273;59;2006;-66
2021/08/06 14:55:22;;;;;;;;;;;;;;;;;;2140965;67;1605;-67
2021/08/06 14:57:47;;;;;;;;;;;;;;;;;;2141036;67;1392;-66
2021/08/06 15:00:13;;;;;;;;;;;;;;;;;;2139450;67;2102;-67
2021/08/06 15:02:38;;;;;;;;;;;;;;;;;;2139996;59;1978;-68
2021/08/06 15:05:03;;;;;;;;;;;;;;;;;;2140344;59;2877;-66
2021/08/06 15:07:33;;;;;;;;;;;;;;;;;;2139283;59;3202;-67
2021/08/06 15:09:58;;;;;;;;;;;;;;;;;;2139115;67;2627;-67
2021/08/06 15:12:23;;;;;;;;;;;;;;;;;;2139541;59;1810;-66
2021/08/06 15:14:49;;;;;;;;;;;;;;;;;;2140520;67;2177;-67
2021/08/06 15:17:14;;;;;;;;;;;;;;;;;;2140754;67;1503;-67
2021/08/06 15:19:39;;;;;;;;;;;;;;;;;;2140805;67;1487;-67
2021/08/06 15:22:04;;;;;;;;;;;;;;;;;;2140088;59;1919;-67
2021/08/06 15:24:30;;;;;;;;;;;;;;;;;;2140583;60;1909;-67
2021/08/06 15:26:55;;;;;;;;;;;;;;;;;;2140144;67;2217;-67
2021/08/06 15:29:20;;;;;;;;;;;;;;;;;;2140235;67;2137;-67
2021/08/06 15:31:45;;;;;;;;;;;;;;;;;;2140948;59;2141;-67
2021/08/06 15:34:12;;;;;;;;;;;;;;;;;;2139684;59;1927;-67
2021/08/06 15:36:38;;;;;;;;;;;;;;;;;;2140711;67;2541;-67
2021/08/06 15:39:03;;;;;;;;;;;;;;;;;;2140574;67;1856;-67
2021/08/06 15:41:28;;;;;;;;;;;;;;;;;;2140961;67;1675;-68
2021/08/06 15:43:53;;;;;;;;;;;;;;;;;;2135590;59;2536;-68
2021/08/06 15:46:19;;;;;;;;;;;;;;;;;;2138394;67;1604;-68
2021/08/06 15:48:44;;;;;;;;;;;;;;;;;;2140154;67;1575;-68
2021/08/06 15:51:09;;;;;;;;;;;;;;;;;;2139279;59;1908;-68
2021/08/06 15:53:35;;;;;;;;;;;;;;;;;;2135141;59;2762;-68
2021/08/06 15:56:00;;;;;;;;;;;;;;;;;;2138862;67;1922;-68
2021/08/06 15:58:25;;;;;;;;;;;;;;;;;;2138812;67;1852;-68
2021/08/06 16:00:50;;;;;;;;;;;;;;;;;;2136195;59;2409;-68
2021/08/06 16:03:16;;;;;;;;;;;;;;;;;;2136102;59;2047;-68
2021/08/06 16:05:42;;;;;;;;;;;;;;;;;;2138224;67;1706;-68
2021/08/06 16:08:07;;;;;;;;;;;;;;;;;;2137202;59;3047;-68
2021/08/06 16:10:33;;;;;;;;;;;;;;;;;;2137543;59;3736;-68
2021/08/06 16:12:58;;;;;;;;;;;;;;;;;;2133322;59;2270;-68
2021/08/06 16:15:23;;;;;;;;;;;;;;;;;;2137045;59;2107;-68
2021/08/06 16:17:48;;;;;;;;;;;;;;;;;;2138830;67;1812;-68
2021/08/06 16:20:14;;;;;;;;;;;;;;;;;;2139015;67;1716;-68
2021/08/06 16:22:40;;;;;;;;;;;;;;;;;;2139032;54;3703;-69
2021/08/06 16:25:06;;;;;;;;;;;;;;;;;;2135509;59;1592;-69
2021/08/06 16:27:31;;;;;;;;;;;;;;;;;;2130060;59;2695;-69
2021/08/06 16:29:56;;;;;;;;;;;;;;;;;;2133192;59;1746;-68
2021/08/06 16:32:21;;;;;;;;;;;;;;;;;;2135874;59;2463;-68
2021/08/06 16:34:47;;;;;;;;;;;;;;;;;;2135349;67;2025;-68
2021/08/06 16:37:12;;;;;;;;;;;;;;;;;;2136904;67;1415;-69
2021/08/06 16:39:37;;;;;;;;;;;;;;;;;;2139833;59;1733;-67
2021/08/06 16:42:03;;;;;;;;;;;;;;;;;;2138586;59;2286;-67
2021/08/06 16:44:28;;;;;;;;;;;;;;;;;;2134547;67;1718;-68
2021/08/06 16:46:53;;;;;;;;;;;;;;;;;;2137571;59;2625;-68
2021/08/06 16:49:18;;;;;;;;;;;;;;;;;;2138365;59;2229;-69
2021/08/06 16:51:44;;;;;;;;;;;;;;;;;;2139620;67;1938;-69
2021/08/06 16:54:10;;;;;;;;;;;;;;;;;;2139756;67;1986;-69
2021/08/06 16:56:36;;;;;;;;;;;;;;;;;;2140230;59;1517;-68
2021/08/06 16:59:01;;;;;;;;;;;;;;;;;;2140305;59;2582;-67